Westrac II — WCU4545 — position and weather

sailwx.info

Track history (hours):
 
Tides and Currents Weather Stations Pressure Air Temp Water Temp Dewpoint Dewpoint Depression Visibility Wind Speed Wind Dir Waves Ship Positions

Westrac II

Owner: WESTERN TOWBOAT COMPANY, SEATTLE, WA. More information available from US FCC via Universal Licensing System and Coast Guard Vessel Documentation Center.

Last reported at 2017-Nov-20 00:30 UTC. Time now 2017-Nov-20 05:53 UTC.
Position N 47°35' W 122°22'.

Type: Tow > 200 m length. MMSI: 366695810.

Date/timePositionNaut miles runAvg speedWind from/ knotsBaromVisibWave heightAir tempDewpointWater temp
2017-Nov-20 00:30N 47°35' W 122°22'1 0.0
2017-Nov-19 03:04N 47°34' W 122°21'0 4.0
2017-Nov-19 03:00N 47°34' W 122°21'1 1.5
2017-Nov-19 02:30N 47°33' W 122°21'1 1.9
2017-Nov-19 02:00N 47°34' W 122°21'0 0.0
2017-Nov-19 01:30N 47°34' W 122°21'0 0.0
2017-Nov-19 01:00N 47°34' W 122°21'0 0.0
2017-Nov-19 00:29N 47°34' W 122°21'0 0.0
2017-Nov-19 00:00N 47°34' W 122°21'0 0.0
2017-Nov-18 23:30N 47°34' W 122°21'0 0.0
2017-Nov-18 23:00N 47°34' W 122°21'0 0.0
2017-Nov-18 22:30N 47°34' W 122°21'0 0.0
2017-Nov-18 22:00N 47°34' W 122°21'0 0.0
2017-Nov-18 21:30N 47°34' W 122°21'0 0.0
2017-Nov-18 21:00N 47°34' W 122°21'0 0.0
2017-Nov-18 20:30N 47°34' W 122°21'0 0.0
2017-Nov-18 20:00N 47°34' W 122°21'0 0.0
2017-Nov-18 19:30N 47°34' W 122°21'0 0.0
2017-Nov-18 19:00N 47°34' W 122°21'1 1.8
2017-Nov-18 18:30N 47°33' W 122°21'0 0.9
2017-Nov-18 17:58N 47°33' W 122°20'0 1.1
2017-Nov-18 17:30N 47°33' W 122°21'1 1.5
2017-Nov-18 17:00N 47°34' W 122°21'2 3.4
2017-Nov-18 16:30N 47°35' W 122°22'2 5.0
2017-Nov-18 16:00N 47°33' W 122°21'0 0.0
2017-Nov-18 15:30N 47°33' W 122°21'0 0.0
2017-Nov-18 15:00N 47°33' W 122°21'1 1.2
2017-Nov-18 14:30N 47°33' W 122°20'0 0.5
2017-Nov-18 14:00N 47°33' W 122°20'2 3.4
2017-Nov-18 13:30N 47°34' W 122°21'0 0.0
2017-Nov-18 13:00N 47°34' W 122°21'0 0.0
2017-Nov-18 12:30N 47°34' W 122°21'0 0.0
2017-Nov-18 12:00N 47°34' W 122°21'0 0.0
2017-Nov-18 11:30N 47°34' W 122°21'0 0.0
2017-Nov-18 11:00N 47°34' W 122°21'0 0.0
2017-Nov-18 10:30N 47°34' W 122°21'0 0.0
2017-Nov-18 10:00N 47°34' W 122°21'0 0.0
2017-Nov-18 09:30N 47°34' W 122°21'0 0.0
2017-Nov-18 09:00N 47°34' W 122°21'0 0.0
2017-Nov-18 08:30N 47°34' W 122°21'0 0.0
2017-Nov-18 08:00N 47°34' W 122°21'0 0.0
2017-Nov-18 07:30N 47°34' W 122°21'0 0.0
2017-Nov-18 07:00N 47°34' W 122°21'0 0.0
2017-Nov-18 06:30N 47°34' W 122°21'0 0.0
2017-Nov-18 06:00N 47°34' W 122°21'0 0.0
2017-Nov-18 05:30N 47°34' W 122°21'0 0.0
2017-Nov-18 05:00N 47°34' W 122°21'0 0.0
2017-Nov-18 04:30N 47°34' W 122°21'2 3.0
2017-Nov-18 04:00N 47°36' W 122°22'3 5.6
2017-Nov-18 03:30N 47°33' W 122°20'1 2.8
2017-Nov-18 03:00N 47°34' W 122°21'1 2.1
2017-Nov-18 02:30N 47°33' W 122°21'0 0.3
2017-Nov-18 01:59N 47°33' W 122°20'0 0.4
2017-Nov-18 01:30N 47°33' W 122°21'1 2.2
2017-Nov-18 00:59N 47°34' W 122°21'1 1.8
2017-Nov-18 00:30N 47°34' W 122°21'1 2.7
2017-Nov-18 00:00N 47°35' W 122°22'0 0.1
2017-Nov-17 23:31N 47°35' W 122°22'0 0.0
2017-Nov-17 23:00N 47°35' W 122°22'2 4.3
2017-Nov-17 22:30N 47°33' W 122°20'3 5.6
2017-Nov-17 22:00N 47°35' W 122°22'2 4.7
2017-Nov-17 21:30N 47°33' W 122°21'1 1.5
2017-Nov-17 21:00N 47°33' W 122°20'0 0.4
2017-Nov-17 20:30N 47°33' W 122°20'3 5.5
2017-Nov-17 20:00N 47°35' W 122°21'1 1.0
2017-Nov-17 19:30N 47°36' W 122°21'0 0.6
2017-Nov-17 19:00N 47°36' W 122°22'3 5.0
2017-Nov-17 18:30N 47°33' W 122°21'0 0.1
2017-Nov-17 18:00N 47°33' W 122°21'2 4.7
2017-Nov-17 17:30N 47°36' W 122°22'1 1.3
2017-Nov-17 17:00N 47°35' W 122°21'0 0.1
2017-Nov-17 16:30N 47°35' W 122°21'1 1.1
2017-Nov-17 16:00N 47°35' W 122°21'0 0.4
2017-Nov-17 15:30N 47°36' W 122°22'2 2.5
2017-Nov-17 14:54N 47°34' W 122°21'0 0.0
2017-Nov-17 10:03N 47°34' W 122°21'0 3.9
2017-Nov-17 10:00N 47°34' W 122°21'0 0.7
2017-Nov-17 09:30N 47°34' W 122°21'2 4.4
2017-Nov-17 09:00N 47°36' W 122°22'0 0.8
2017-Nov-17 08:30N 47°35' W 122°22'0 0.3
2017-Nov-17 08:00N 47°35' W 122°22'1 1.4
2017-Nov-17 07:30N 47°36' W 122°23'1 1.0
2017-Nov-17 07:00N 47°36' W 122°22'1 3.0
2017-Nov-17 06:30N 47°34' W 122°21'0 0.0
2017-Nov-16 03:53N 47°34' W 122°21'1 2.3
2017-Nov-16 03:30N 47°35' W 122°22'2 4.4
2017-Nov-16 03:00N 47°33' W 122°20'1 1.2
2017-Nov-16 02:30N 47°33' W 122°21'0 0.7
2017-Nov-16 02:00N 47°33' W 122°20'0 0.6
2017-Nov-16 01:30N 47°33' W 122°21'0 1.0
2017-Nov-16 01:01N 47°33' W 122°20'1 2.4
2017-Nov-16 00:30N 47°34' W 122°21'1 1.2
2017-Nov-16 00:00N 47°35' W 122°21'2 3.6
2017-Nov-15 23:30N 47°33' W 122°20'0 0.0
2017-Nov-15 23:00N 47°33' W 122°20'3 5.9
2017-Nov-15 22:30N 47°36' W 122°22'2 3.4
2017-Nov-15 22:00N 47°34' W 122°21'0 0.0
2017-Nov-15 21:30N 47°34' W 122°21'1 1.4
2017-Nov-15 21:00N 47°33' W 122°21'1 1.6
2017-Nov-15 20:30N 47°33' W 122°20'3 5.3
2017-Nov-15 20:00N 47°35' W 122°22'1 1.4
2017-Nov-15 19:30N 47°35' W 122°21'1 2.6
2017-Nov-15 19:00N 47°34' W 122°21'0 0.3
2017-Nov-15 18:30N 47°34' W 122°21'1 2.7
2017-Nov-15 18:01N 47°35' W 122°22'3 5.5
2017-Nov-15 17:30N 47°33' W 122°20'0 0.6
2017-Nov-15 17:00N 47°33' W 122°20'2 4.8
2017-Nov-15 16:30N 47°35' W 122°21'1 1.5
2017-Nov-15 16:00N 47°35' W 122°22'2 4.1
2017-Nov-15 15:30N 47°33' W 122°20'1 2.7
2017-Nov-15 15:00N 47°34' W 122°21'0 0.0
2017-Nov-15 01:54N 47°34' W 122°21'2 4.1
2017-Nov-15 01:31N 47°35' W 122°22'2 3.3
2017-Nov-15 01:00N 47°34' W 122°21'1 2.4
2017-Nov-15 00:31N 47°33' W 122°20'2 3.2
2017-Nov-15 00:00N 47°34' W 122°21'1 1.9
2017-Nov-14 23:30N 47°35' W 122°21'1 1.8
2017-Nov-14 23:00N 47°34' W 122°21'1 2.6
2017-Nov-14 22:30N 47°33' W 122°21'2 4.8
2017-Nov-14 22:00N 47°35' W 122°22'2 3.4
2017-Nov-14 21:31N 47°34' W 122°21'1 1.5
2017-Nov-14 21:00N 47°33' W 122°21'0 0.8
2017-Nov-14 20:31N 47°33' W 122°20'0 0.9
2017-Nov-14 20:00N 47°33' W 122°21'0 0.5
2017-Nov-14 19:31N 47°33' W 122°20'0 0.6
2017-Nov-14 19:00N 47°33' W 122°21'1 1.1
2017-Nov-14 18:31N 47°33' W 122°20'2 4.5
2017-Nov-14 18:01N 47°35' W 122°22'0 0.1
2017-Nov-14 17:30N 47°35' W 122°22'3 5.5
2017-Nov-14 17:01N 47°32' W 122°20'1 1.6
2017-Nov-14 16:31N 47°33' W 122°21'2 3.7
2017-Nov-14 16:00N 47°35' W 122°22'0 0.2
2017-Nov-14 15:31N 47°35' W 122°22'2 3.7
2017-Nov-14 15:01N 47°33' W 122°21'1 1.7
2017-Nov-14 14:30N 47°34' W 122°21'0 0.3
2017-Nov-14 14:00N 47°34' W 122°21'1 1.6
2017-Nov-14 13:31N 47°33' W 122°21'2 4.4
2017-Nov-14 13:01N 47°35' W 122°22'1 2.5
2017-Nov-14 12:30N 47°34' W 122°21'0 0.0
2017-Nov-14 07:11N 47°34' W 122°21'1 4.5
2017-Nov-14 07:00N 47°35' W 122°22'3 6.1
2017-Nov-14 06:30N 47°38' W 122°23'0 0.9
2017-Nov-14 06:00N 47°37' W 122°23'4 8.4
2017-Nov-14 05:30N 47°33' W 122°21'0 0.4
2017-Nov-14 05:00N 47°33' W 122°21'2 4.1
2017-Nov-14 04:30N 47°35' W 122°21'2 3.3
2017-Nov-14 04:00N 47°37' W 122°23'1 1.9
2017-Nov-14 03:30N 47°36' W 122°22'2 3.6
2017-Nov-14 03:00N 47°34' W 122°21'0 0.0
2017-Nov-14 02:30N 47°34' W 122°21'1 1.0
2017-Nov-14 02:00N 47°34' W 122°21'1 2.3
2017-Nov-14 01:30N 47°35' W 122°21'0 0.2
2017-Nov-14 01:00N 47°35' W 122°21'1 1.9
2017-Nov-14 00:31N 47°36' W 122°22'0 0.4
2017-Nov-14 00:00N 47°36' W 122°22'2 1.7
2017-Nov-13 23:02N 47°34' W 122°21'0 0.0
2017-Nov-13 23:00N 47°34' W 122°21'1 3.0
2017-Nov-13 22:30N 47°33' W 122°20'2 3.9
2017-Nov-13 22:00N 47°34' W 122°21'1 0.0
2017-Nov-13 01:52N 47°34' W 122°21'0 0.1
2017-Nov-13 01:30N 47°34' W 122°21'1 1.9
2017-Nov-13 01:00N 47°33' W 122°21'0 0.1
2017-Nov-13 00:30N 47°33' W 122°21'0 0.7
2017-Nov-13 00:00N 47°34' W 122°21'1 0.0
2017-Nov-11 18:58N 47°34' W 122°21'0 0.8
2017-Nov-11 18:31N 47°34' W 122°21'1 2.5
2017-Nov-11 18:00N 47°33' W 122°20'1 1.8
2017-Nov-11 17:30N 47°34' W 122°21'2 3.4
2017-Nov-11 17:00N 47°35' W 122°22'2 3.2
2017-Nov-11 16:30N 47°34' W 122°21'0 0.0
2017-Nov-11 16:00N 47°34' W 122°21'0 0.0
2017-Nov-11 03:14N 47°34' W 122°21'1 6.2
2017-Nov-11 03:00N 47°33' W 122°20'3 5.1
2017-Nov-11 02:30N 47°35' W 122°21'1 1.5
2017-Nov-11 02:00N 47°36' W 122°22'0 0.7
2017-Nov-11 01:30N 47°36' W 122°21'2 4.6
2017-Nov-11 01:00N 47°33' W 122°21'0 0.6
2017-Nov-11 00:30N 47°33' W 122°20'0 0.0
2017-Nov-11 00:00N 47°33' W 122°20'0 0.0
2017-Nov-10 23:30N 47°33' W 122°20'0 0.6
2017-Nov-10 23:00N 47°33' W 122°20'3 6.2
2017-Nov-10 22:30N 47°36' W 122°22'0 0.8
2017-Nov-10 22:00N 47°35' W 122°22'3 5.9
2017-Nov-10 21:30N 47°33' W 122°20'2 4.5
2017-Nov-10 21:00N 47°35' W 122°22'1 1.2
2017-Nov-10 20:30N 47°35' W 122°22'3 5.7
2017-Nov-10 20:00N 47°33' W 122°20'1 3.0
2017-Nov-10 19:30N 47°34' W 122°21'0 0.0
2017-Nov-10 19:00N 47°34' W 122°21'0 0.0
2017-Nov-10 18:30N 47°34' W 122°21'0 0.8
2017-Nov-10 18:00N 47°34' W 122°21'1 2.4
2017-Nov-10 17:30N 47°35' W 122°22'0 0.9
2017-Nov-10 17:00N 47°35' W 122°23'0 0.4
2017-Nov-10 16:30N 47°35' W 122°22'2 4.5
2017-Nov-10 16:00N 47°33' W 122°21'1 1.7
2017-Nov-10 15:30N 47°34' W 122°21'0 0.0
2017-Nov-10 15:00N 47°34' W 122°21'0 0.0
2017-Nov-10 14:30N 47°34' W 122°21'0 0.0
2017-Nov-10 14:00N 47°34' W 122°21'0 0.0
2017-Nov-10 13:30N 47°34' W 122°21'0 0.0
2017-Nov-10 13:00N 47°34' W 122°21'0 0.0
2017-Nov-10 12:30N 47°34' W 122°21'0 0.0
2017-Nov-10 12:00N 47°34' W 122°21'0 0.0
2017-Nov-10 11:30N 47°34' W 122°21'0 0.0
2017-Nov-10 11:00N 47°34' W 122°21'0 0.0
2017-Nov-10 10:30N 47°34' W 122°21'0 0.0
2017-Nov-10 10:00N 47°34' W 122°21'0 0.0
2017-Nov-10 09:30N 47°34' W 122°21'0 0.0
2017-Nov-10 09:00N 47°34' W 122°21'0 0.0
2017-Nov-10 08:30N 47°34' W 122°21'0 0.0
2017-Nov-10 08:00N 47°34' W 122°21'0 0.0
2017-Nov-10 07:30N 47°34' W 122°21'0 0.0
2017-Nov-10 07:00N 47°34' W 122°21'0 0.0
2017-Nov-10 06:30N 47°34' W 122°21'0 0.0
2017-Nov-10 06:00N 47°34' W 122°21'1 1.6
2017-Nov-10 05:30N 47°33' W 122°21'1 1.3
2017-Nov-10 05:00N 47°34' W 122°21'0 0.2
2017-Nov-10 04:30N 47°34' W 122°21'0 0.0
2017-Nov-10 04:00N 47°34' W 122°21'0 0.0
2017-Nov-10 03:29N 47°34' W 122°21'0 0.0
2017-Nov-10 03:00N 47°34' W 122°21'0 0.0
2017-Nov-10 02:30N 47°34' W 122°21'0 0.0
2017-Nov-10 02:00N 47°34' W 122°21'0 0.0
2017-Nov-10 01:29N 47°34' W 122°21'0 0.0
2017-Nov-10 01:00N 47°34' W 122°21'  
Track history (hours):
 
Tides and Currents Weather Stations Pressure Air Temp Water Temp Dewpoint Dewpoint Depression Visibility Wind Speed Wind Dir Waves Ship Positions

Westrac II

Owner: WESTERN TOWBOAT COMPANY, SEATTLE, WA. More information available from US FCC via Universal Licensing System and Coast Guard Vessel Documentation Center.

Last reported at 2017-Nov-20 00:30 UTC. Time now 2017-Nov-20 05:53 UTC.
Position N 47°35' W 122°22'.

Type: Tow > 200 m length. MMSI: 366695810.

Date/timePositionNaut miles runAvg speedWind from/ knotsBaromVisibWave heightAir tempDewpointWater temp
2017-Nov-20 00:30N 47°35' W 122°22'1 0.0
2017-Nov-19 03:04N 47°34' W 122°21'0 4.0
2017-Nov-19 03:00N 47°34' W 122°21'1 1.5
2017-Nov-19 02:30N 47°33' W 122°21'1 1.9
2017-Nov-19 02:00N 47°34' W 122°21'0 0.0
2017-Nov-19 01:30N 47°34' W 122°21'0 0.0
2017-Nov-19 01:00N 47°34' W 122°21'0 0.0
2017-Nov-19 00:29N 47°34' W 122°21'0 0.0
2017-Nov-19 00:00N 47°34' W 122°21'0 0.0
2017-Nov-18 23:30N 47°34' W 122°21'0 0.0
2017-Nov-18 23:00N 47°34' W 122°21'0 0.0
2017-Nov-18 22:30N 47°34' W 122°21'0 0.0
2017-Nov-18 22:00N 47°34' W 122°21'0 0.0
2017-Nov-18 21:30N 47°34' W 122°21'0 0.0
2017-Nov-18 21:00N 47°34' W 122°21'0 0.0
2017-Nov-18 20:30N 47°34' W 122°21'0 0.0
2017-Nov-18 20:00N 47°34' W 122°21'0 0.0
2017-Nov-18 19:30N 47°34' W 122°21'0 0.0
2017-Nov-18 19:00N 47°34' W 122°21'1 1.8
2017-Nov-18 18:30N 47°33' W 122°21'0 0.9
2017-Nov-18 17:58N 47°33' W 122°20'0 1.1
2017-Nov-18 17:30N 47°33' W 122°21'1 1.5
2017-Nov-18 17:00N 47°34' W 122°21'2 3.4
2017-Nov-18 16:30N 47°35' W 122°22'2 5.0
2017-Nov-18 16:00N 47°33' W 122°21'0 0.0
2017-Nov-18 15:30N 47°33' W 122°21'0 0.0
2017-Nov-18 15:00N 47°33' W 122°21'1 1.2
2017-Nov-18 14:30N 47°33' W 122°20'0 0.5
2017-Nov-18 14:00N 47°33' W 122°20'2 3.4
2017-Nov-18 13:30N 47°34' W 122°21'0 0.0
2017-Nov-18 13:00N 47°34' W 122°21'0 0.0
2017-Nov-18 12:30N 47°34' W 122°21'0 0.0
2017-Nov-18 12:00N 47°34' W 122°21'0 0.0
2017-Nov-18 11:30N 47°34' W 122°21'0 0.0
2017-Nov-18 11:00N 47°34' W 122°21'0 0.0
2017-Nov-18 10:30N 47°34' W 122°21'0 0.0
2017-Nov-18 10:00N 47°34' W 122°21'0 0.0
2017-Nov-18 09:30N 47°34' W 122°21'0 0.0
2017-Nov-18 09:00N 47°34' W 122°21'0 0.0
2017-Nov-18 08:30N 47°34' W 122°21'0 0.0
2017-Nov-18 08:00N 47°34' W 122°21'0 0.0
2017-Nov-18 07:30N 47°34' W 122°21'0 0.0
2017-Nov-18 07:00N 47°34' W 122°21'0 0.0
2017-Nov-18 06:30N 47°34' W 122°21'0 0.0
2017-Nov-18 06:00N 47°34' W 122°21'0 0.0
2017-Nov-18 05:30N 47°34' W 122°21'0 0.0
2017-Nov-18 05:00N 47°34' W 122°21'0 0.0
2017-Nov-18 04:30N 47°34' W 122°21'2 3.0
2017-Nov-18 04:00N 47°36' W 122°22'3 5.6
2017-Nov-18 03:30N 47°33' W 122°20'1 2.8
2017-Nov-18 03:00N 47°34' W 122°21'1 2.1
2017-Nov-18 02:30N 47°33' W 122°21'0 0.3
2017-Nov-18 01:59N 47°33' W 122°20'0 0.4
2017-Nov-18 01:30N 47°33' W 122°21'1 2.2
2017-Nov-18 00:59N 47°34' W 122°21'1 1.8
2017-Nov-18 00:30N 47°34' W 122°21'1 2.7
2017-Nov-18 00:00N 47°35' W 122°22'0 0.1
2017-Nov-17 23:31N 47°35' W 122°22'0 0.0
2017-Nov-17 23:00N 47°35' W 122°22'2 4.3
2017-Nov-17 22:30N 47°33' W 122°20'3 5.6
2017-Nov-17 22:00N 47°35' W 122°22'2 4.7
2017-Nov-17 21:30N 47°33' W 122°21'1 1.5
2017-Nov-17 21:00N 47°33' W 122°20'0 0.4
2017-Nov-17 20:30N 47°33' W 122°20'3 5.5
2017-Nov-17 20:00N 47°35' W 122°21'1 1.0
2017-Nov-17 19:30N 47°36' W 122°21'0 0.6
2017-Nov-17 19:00N 47°36' W 122°22'3 5.0
2017-Nov-17 18:30N 47°33' W 122°21'0 0.1
2017-Nov-17 18:00N 47°33' W 122°21'2 4.7
2017-Nov-17 17:30N 47°36' W 122°22'1 1.3
2017-Nov-17 17:00N 47°35' W 122°21'0 0.1
2017-Nov-17 16:30N 47°35' W 122°21'1 1.1
2017-Nov-17 16:00N 47°35' W 122°21'0 0.4
2017-Nov-17 15:30N 47°36' W 122°22'2 2.5
2017-Nov-17 14:54N 47°34' W 122°21'0 0.0
2017-Nov-17 10:03N 47°34' W 122°21'0 3.9
2017-Nov-17 10:00N 47°34' W 122°21'0 0.7
2017-Nov-17 09:30N 47°34' W 122°21'2 4.4
2017-Nov-17 09:00N 47°36' W 122°22'0 0.8
2017-Nov-17 08:30N 47°35' W 122°22'0 0.3
2017-Nov-17 08:00N 47°35' W 122°22'1 1.4
2017-Nov-17 07:30N 47°36' W 122°23'1 1.0
2017-Nov-17 07:00N 47°36' W 122°22'1 3.0
2017-Nov-17 06:30N 47°34' W 122°21'0 0.0
2017-Nov-16 03:53N 47°34' W 122°21'1 2.3
2017-Nov-16 03:30N 47°35' W 122°22'2 4.4
2017-Nov-16 03:00N 47°33' W 122°20'1 1.2
2017-Nov-16 02:30N 47°33' W 122°21'0 0.7
2017-Nov-16 02:00N 47°33' W 122°20'0 0.6
2017-Nov-16 01:30N 47°33' W 122°21'0 1.0
2017-Nov-16 01:01N 47°33' W 122°20'1 2.4
2017-Nov-16 00:30N 47°34' W 122°21'1 1.2
2017-Nov-16 00:00N 47°35' W 122°21'2 3.6
2017-Nov-15 23:30N 47°33' W 122°20'0 0.0
2017-Nov-15 23:00N 47°33' W 122°20'3 5.9
2017-Nov-15 22:30N 47°36' W 122°22'2 3.4
2017-Nov-15 22:00N 47°34' W 122°21'0 0.0
2017-Nov-15 21:30N 47°34' W 122°21'1 1.4
2017-Nov-15 21:00N 47°33' W 122°21'1 1.6
2017-Nov-15 20:30N 47°33' W 122°20'3 5.3
2017-Nov-15 20:00N 47°35' W 122°22'1 1.4
2017-Nov-15 19:30N 47°35' W 122°21'1 2.6
2017-Nov-15 19:00N 47°34' W 122°21'0 0.3
2017-Nov-15 18:30N 47°34' W 122°21'1 2.7
2017-Nov-15 18:01N 47°35' W 122°22'3 5.5
2017-Nov-15 17:30N 47°33' W 122°20'0 0.6
2017-Nov-15 17:00N 47°33' W 122°20'2 4.8
2017-Nov-15 16:30N 47°35' W 122°21'1 1.5
2017-Nov-15 16:00N 47°35' W 122°22'2 4.1
2017-Nov-15 15:30N 47°33' W 122°20'1 2.7
2017-Nov-15 15:00N 47°34' W 122°21'0 0.0
2017-Nov-15 01:54N 47°34' W 122°21'2 4.1
2017-Nov-15 01:31N 47°35' W 122°22'2 3.3
2017-Nov-15 01:00N 47°34' W 122°21'1 2.4
2017-Nov-15 00:31N 47°33' W 122°20'2 3.2
2017-Nov-15 00:00N 47°34' W 122°21'1 1.9
2017-Nov-14 23:30N 47°35' W 122°21'1 1.8
2017-Nov-14 23:00N 47°34' W 122°21'1 2.6
2017-Nov-14 22:30N 47°33' W 122°21'2 4.8
2017-Nov-14 22:00N 47°35' W 122°22'2 3.4
2017-Nov-14 21:31N 47°34' W 122°21'1 1.5
2017-Nov-14 21:00N 47°33' W 122°21'0 0.8
2017-Nov-14 20:31N 47°33' W 122°20'0 0.9
2017-Nov-14 20:00N 47°33' W 122°21'0 0.5
2017-Nov-14 19:31N 47°33' W 122°20'0 0.6
2017-Nov-14 19:00N 47°33' W 122°21'1 1.1
2017-Nov-14 18:31N 47°33' W 122°20'2 4.5
2017-Nov-14 18:01N 47°35' W 122°22'0 0.1
2017-Nov-14 17:30N 47°35' W 122°22'3 5.5
2017-Nov-14 17:01N 47°32' W 122°20'1 1.6
2017-Nov-14 16:31N 47°33' W 122°21'2 3.7
2017-Nov-14 16:00N 47°35' W 122°22'0 0.2
2017-Nov-14 15:31N 47°35' W 122°22'2 3.7
2017-Nov-14 15:01N 47°33' W 122°21'1 1.7
2017-Nov-14 14:30N 47°34' W 122°21'0 0.3
2017-Nov-14 14:00N 47°34' W 122°21'1 1.6
2017-Nov-14 13:31N 47°33' W 122°21'2 4.4
2017-Nov-14 13:01N 47°35' W 122°22'1 2.5
2017-Nov-14 12:30N 47°34' W 122°21'0 0.0
2017-Nov-14 07:11N 47°34' W 122°21'1 4.5
2017-Nov-14 07:00N 47°35' W 122°22'3 6.1
2017-Nov-14 06:30N 47°38' W 122°23'0 0.9
2017-Nov-14 06:00N 47°37' W 122°23'4 8.4
2017-Nov-14 05:30N 47°33' W 122°21'0 0.4
2017-Nov-14 05:00N 47°33' W 122°21'2 4.1
2017-Nov-14 04:30N 47°35' W 122°21'2 3.3
2017-Nov-14 04:00N 47°37' W 122°23'1 1.9
2017-Nov-14 03:30N 47°36' W 122°22'2 3.6
2017-Nov-14 03:00N 47°34' W 122°21'0 0.0
2017-Nov-14 02:30N 47°34' W 122°21'1 1.0
2017-Nov-14 02:00N 47°34' W 122°21'1 2.3
2017-Nov-14 01:30N 47°35' W 122°21'0 0.2
2017-Nov-14 01:00N 47°35' W 122°21'1 1.9
2017-Nov-14 00:31N 47°36' W 122°22'0 0.4
2017-Nov-14 00:00N 47°36' W 122°22'2 1.7
2017-Nov-13 23:02N 47°34' W 122°21'0 0.0
2017-Nov-13 23:00N 47°34' W 122°21'1 3.0
2017-Nov-13 22:30N 47°33' W 122°20'2 3.9
2017-Nov-13 22:00N 47°34' W 122°21'1 0.0
2017-Nov-13 01:52N 47°34' W 122°21'0 0.1
2017-Nov-13 01:30N 47°34' W 122°21'1 1.9
2017-Nov-13 01:00N 47°33' W 122°21'0 0.1
2017-Nov-13 00:30N 47°33' W 122°21'0 0.7
2017-Nov-13 00:00N 47°34' W 122°21'1 0.0
2017-Nov-11 18:58N 47°34' W 122°21'0 0.8
2017-Nov-11 18:31N 47°34' W 122°21'1 2.5
2017-Nov-11 18:00N 47°33' W 122°20'1 1.8
2017-Nov-11 17:30N 47°34' W 122°21'2 3.4
2017-Nov-11 17:00N 47°35' W 122°22'2 3.2
2017-Nov-11 16:30N 47°34' W 122°21'0 0.0
2017-Nov-11 16:00N 47°34' W 122°21'0 0.0
2017-Nov-11 03:14N 47°34' W 122°21'1 6.2
2017-Nov-11 03:00N 47°33' W 122°20'3 5.1
2017-Nov-11 02:30N 47°35' W 122°21'1 1.5
2017-Nov-11 02:00N 47°36' W 122°22'0 0.7
2017-Nov-11 01:30N 47°36' W 122°21'2 4.6
2017-Nov-11 01:00N 47°33' W 122°21'0 0.6
2017-Nov-11 00:30N 47°33' W 122°20'0 0.0
2017-Nov-11 00:00N 47°33' W 122°20'0 0.0
2017-Nov-10 23:30N 47°33' W 122°20'0 0.6
2017-Nov-10 23:00N 47°33' W 122°20'3 6.2
2017-Nov-10 22:30N 47°36' W 122°22'0 0.8
2017-Nov-10 22:00N 47°35' W 122°22'3 5.9
2017-Nov-10 21:30N 47°33' W 122°20'2 4.5
2017-Nov-10 21:00N 47°35' W 122°22'1 1.2
2017-Nov-10 20:30N 47°35' W 122°22'3 5.7
2017-Nov-10 20:00N 47°33' W 122°20'1 3.0
2017-Nov-10 19:30N 47°34' W 122°21'0 0.0
2017-Nov-10 19:00N 47°34' W 122°21'0 0.0
2017-Nov-10 18:30N 47°34' W 122°21'0 0.8
2017-Nov-10 18:00N 47°34' W 122°21'1 2.4
2017-Nov-10 17:30N 47°35' W 122°22'0 0.9
2017-Nov-10 17:00N 47°35' W 122°23'0 0.4
2017-Nov-10 16:30N 47°35' W 122°22'2 4.5
2017-Nov-10 16:00N 47°33' W 122°21'1 1.7
2017-Nov-10 15:30N 47°34' W 122°21'0 0.0
2017-Nov-10 15:00N 47°34' W 122°21'0 0.0
2017-Nov-10 14:30N 47°34' W 122°21'0 0.0
2017-Nov-10 14:00N 47°34' W 122°21'0 0.0
2017-Nov-10 13:30N 47°34' W 122°21'0 0.0
2017-Nov-10 13:00N 47°34' W 122°21'0 0.0
2017-Nov-10 12:30N 47°34' W 122°21'0 0.0
2017-Nov-10 12:00N 47°34' W 122°21'0 0.0
2017-Nov-10 11:30N 47°34' W 122°21'0 0.0
2017-Nov-10 11:00N 47°34' W 122°21'0 0.0
2017-Nov-10 10:30N 47°34' W 122°21'0 0.0
2017-Nov-10 10:00N 47°34' W 122°21'0 0.0
2017-Nov-10 09:30N 47°34' W 122°21'0 0.0
2017-Nov-10 09:00N 47°34' W 122°21'0 0.0
2017-Nov-10 08:30N 47°34' W 122°21'0 0.0
2017-Nov-10 08:00N 47°34' W 122°21'0 0.0
2017-Nov-10 07:30N 47°34' W 122°21'0 0.0
2017-Nov-10 07:00N 47°34' W 122°21'0 0.0
2017-Nov-10 06:30N 47°34' W 122°21'0 0.0
2017-Nov-10 06:00N 47°34' W 122°21'1 1.6
2017-Nov-10 05:30N 47°33' W 122°21'1 1.3
2017-Nov-10 05:00N 47°34' W 122°21'0 0.2
2017-Nov-10 04:30N 47°34' W 122°21'0 0.0
2017-Nov-10 04:00N 47°34' W 122°21'0 0.0
2017-Nov-10 03:29N 47°34' W 122°21'0 0.0
2017-Nov-10 03:00N 47°34' W 122°21'0 0.0
2017-Nov-10 02:30N 47°34' W 122°21'0 0.0
2017-Nov-10 02:00N 47°34' W 122°21'0 0.0
2017-Nov-10 01:29N 47°34' W 122°21'0 0.0
2017-Nov-10 01:00N 47°34' W 122°21'  

Dump ship's entire track history